sensor_id;sensor_type;location;lat;lon;timestamp;temperature;humidity
7972;DHT22;4031;49.758;6.120;2024-02-26T00:01:40;5.60;99.90
7972;DHT22;4031;49.758;6.120;2024-02-26T00:04:09;5.60;99.90
7972;DHT22;4031;49.758;6.120;2024-02-26T00:06:35;5.60;99.90
7972;DHT22;4031;49.758;6.120;2024-02-26T00:09:02;5.50;99.90
7972;DHT22;4031;49.758;6.120;2024-02-26T00:11:31;5.50;99.90
7972;DHT22;4031;49.758;6.120;2024-02-26T00:13:57;5.50;99.90
7972;DHT22;4031;49.758;6.120;2024-02-26T00:16:23;5.60;99.90
7972;DHT22;4031;49.758;6.120;2024-02-26T00:18:49;5.60;99.90
7972;DHT22;4031;49.758;6.120;2024-02-26T00:21:15;5.50;99.90
7972;DHT22;4031;49.758;6.120;2024-02-26T00:23:41;5.50;99.90
7972;DHT22;4031;49.758;6.120;2024-02-26T00:26:06;5.50;99.90
7972;DHT22;4031;49.758;6.120;2024-02-26T00:28:33;5.50;99.90
7972;DHT22;4031;49.758;6.120;2024-02-26T00:30:59;5.50;99.90
7972;DHT22;4031;49.758;6.120;2024-02-26T00:33:25;5.50;99.90
7972;DHT22;4031;49.758;6.120;2024-02-26T00:35:51;5.50;99.90
7972;DHT22;4031;49.758;6.120;2024-02-26T00:38:16;5.50;99.90
7972;DHT22;4031;49.758;6.120;2024-02-26T00:40:42;5.50;99.90
7972;DHT22;4031;49.758;6.120;2024-02-26T00:43:08;5.50;99.90
7972;DHT22;4031;49.758;6.120;2024-02-26T00:45:34;5.50;99.90
7972;DHT22;4031;49.758;6.120;2024-02-26T00:47:59;5.40;99.90
7972;DHT22;4031;49.758;6.120;2024-02-26T00:50:36;5.40;99.90
7972;DHT22;4031;49.758;6.120;2024-02-26T00:53:02;5.40;99.90
7972;DHT22;4031;49.758;6.120;2024-02-26T00:55:28;5.40;99.90
7972;DHT22;4031;49.758;6.120;2024-02-26T00:57:53;5.40;99.90
7972;DHT22;4031;49.758;6.120;2024-02-26T01:00:19;5.40;99.90
7972;DHT22;4031;49.758;6.120;2024-02-26T01:02:45;5.40;99.90
7972;DHT22;4031;49.758;6.120;2024-02-26T01:05:14;5.40;99.90
7972;DHT22;4031;49.758;6.120;2024-02-26T01:07:41;5.40;99.90
7972;DHT22;4031;49.758;6.120;2024-02-26T01:10:08;5.40;99.90
7972;DHT22;4031;49.758;6.120;2024-02-26T01:12:34;5.40;99.90
7972;DHT22;4031;49.758;6.120;2024-02-26T01:15:04;5.30;99.90
7972;DHT22;4031;49.758;6.120;2024-02-26T01:17:30;5.30;99.90
7972;DHT22;4031;49.758;6.120;2024-02-26T01:19:56;5.30;99.90
7972;DHT22;4031;49.758;6.120;2024-02-26T01:22:22;5.40;99.90
7972;DHT22;4031;49.758;6.120;2024-02-26T01:24:48;5.30;99.90
7972;DHT22;4031;49.758;6.120;2024-02-26T01:27:13;5.30;99.90
7972;DHT22;4031;49.758;6.120;2024-02-26T01:29:41;5.20;99.90
7972;DHT22;4031;49.758;6.120;2024-02-26T01:32:07;5.30;99.90
7972;DHT22;4031;49.758;6.120;2024-02-26T01:34:33;5.20;99.90
7972;DHT22;4031;49.758;6.120;2024-02-26T01:36:59;5.30;99.90
7972;DHT22;4031;49.758;6.120;2024-02-26T01:39:26;5.20;99.90
7972;DHT22;4031;49.758;6.120;2024-02-26T01:41:53;5.20;99.90
7972;DHT22;4031;49.758;6.120;2024-02-26T01:44:19;5.20;99.90
7972;DHT22;4031;49.758;6.120;2024-02-26T01:46:44;5.20;99.90
7972;DHT22;4031;49.758;6.120;2024-02-26T01:49:12;5.30;99.90
7972;DHT22;4031;49.758;6.120;2024-02-26T01:51:39;5.20;99.90
7972;DHT22;4031;49.758;6.120;2024-02-26T01:54:08;5.30;99.90
7972;DHT22;4031;49.758;6.120;2024-02-26T01:56:35;5.30;99.90
7972;DHT22;4031;49.758;6.120;2024-02-26T01:59:02;5.20;99.90
7972;DHT22;4031;49.758;6.120;2024-02-26T02:01:29;5.20;99.90
7972;DHT22;4031;49.758;6.120;2024-02-26T02:03:58;5.20;99.90
7972;DHT22;4031;49.758;6.120;2024-02-26T02:06:25;5.20;99.90
7972;DHT22;4031;49.758;6.120;2024-02-26T02:08:54;5.20;99.90
7972;DHT22;4031;49.758;6.120;2024-02-26T02:11:20;5.10;99.90
7972;DHT22;4031;49.758;6.120;2024-02-26T02:13:46;5.10;99.90
7972;DHT22;4031;49.758;6.120;2024-02-26T02:16:13;5.10;99.90
7972;DHT22;4031;49.758;6.120;2024-02-26T02:18:39;5.10;99.90
7972;DHT22;4031;49.758;6.120;2024-02-26T02:21:04;5.20;99.90
7972;DHT22;4031;49.758;6.120;2024-02-26T02:23:30;5.20;99.90
7972;DHT22;4031;49.758;6.120;2024-02-26T02:25:57;5.10;99.90
7972;DHT22;4031;49.758;6.120;2024-02-26T02:28:25;5.10;99.90
7972;DHT22;4031;49.758;6.120;2024-02-26T02:30:51;5.10;99.90
7972;DHT22;4031;49.758;6.120;2024-02-26T02:33:17;5.10;99.90
7972;DHT22;4031;49.758;6.120;2024-02-26T02:35:43;5.10;99.90
7972;DHT22;4031;49.758;6.120;2024-02-26T02:38:09;5.10;99.90
7972;DHT22;4031;49.758;6.120;2024-02-26T02:40:35;5.10;99.90
7972;DHT22;4031;49.758;6.120;2024-02-26T02:43:02;5.10;99.90
7972;DHT22;4031;49.758;6.120;2024-02-26T02:45:28;5.10;99.90
7972;DHT22;4031;49.758;6.120;2024-02-26T02:47:54;5.10;99.90
7972;DHT22;4031;49.758;6.120;2024-02-26T02:50:20;5.10;99.90
7972;DHT22;4031;49.758;6.120;2024-02-26T02:52:46;5.00;99.90
7972;DHT22;4031;49.758;6.120;2024-02-26T02:55:12;5.10;99.90
7972;DHT22;4031;49.758;6.120;2024-02-26T02:57:38;5.10;99.90
7972;DHT22;4031;49.758;6.120;2024-02-26T03:00:08;5.10;99.90
7972;DHT22;4031;49.758;6.120;2024-02-26T03:02:34;5.10;99.90
7972;DHT22;4031;49.758;6.120;2024-02-26T03:05:02;5.10;99.90
7972;DHT22;4031;49.758;6.120;2024-02-26T03:07:28;5.10;99.90
7972;DHT22;4031;49.758;6.120;2024-02-26T03:09:54;5.10;99.90
7972;DHT22;4031;49.758;6.120;2024-02-26T03:12:20;5.10;99.90
7972;DHT22;4031;49.758;6.120;2024-02-26T03:14:46;5.10;99.90
7972;DHT22;4031;49.758;6.120;2024-02-26T03:17:12;5.10;99.90
7972;DHT22;4031;49.758;6.120;2024-02-26T03:19:37;5.00;99.90
7972;DHT22;4031;49.758;6.120;2024-02-26T03:22:03;5.10;99.90
7972;DHT22;4031;49.758;6.120;2024-02-26T03:24:29;5.10;99.90
7972;DHT22;4031;49.758;6.120;2024-02-26T03:26:56;5.10;99.90
7972;DHT22;4031;49.758;6.120;2024-02-26T03:29:22;5.10;99.90
7972;DHT22;4031;49.758;6.120;2024-02-26T03:31:47;5.10;99.90
7972;DHT22;4031;49.758;6.120;2024-02-26T03:34:13;5.10;99.90
7972;DHT22;4031;49.758;6.120;2024-02-26T03:36:40;5.10;99.90
7972;DHT22;4031;49.758;6.120;2024-02-26T03:39:06;5.20;99.90
7972;DHT22;4031;49.758;6.120;2024-02-26T03:41:36;5.20;99.90
7972;DHT22;4031;49.758;6.120;2024-02-26T03:44:02;5.20;99.90
7972;DHT22;4031;49.758;6.120;2024-02-26T03:46:28;5.10;99.90
7972;DHT22;4031;49.758;6.120;2024-02-26T03:48:54;5.20;99.90
7972;DHT22;4031;49.758;6.120;2024-02-26T03:51:20;5.20;99.90
7972;DHT22;4031;49.758;6.120;2024-02-26T03:53:45;5.30;99.90
7972;DHT22;4031;49.758;6.120;2024-02-26T03:56:12;5.20;99.90
7972;DHT22;4031;49.758;6.120;2024-02-26T03:58:38;5.20;99.90
7972;DHT22;4031;49.758;6.120;2024-02-26T04:01:07;5.20;99.90
7972;DHT22;4031;49.758;6.120;2024-02-26T04:03:33;5.20;99.90
7972;DHT22;4031;49.758;6.120;2024-02-26T04:05:59;5.30;99.90
7972;DHT22;4031;49.758;6.120;2024-02-26T04:08:25;5.30;99.90
7972;DHT22;4031;49.758;6.120;2024-02-26T04:10:51;5.30;99.90
7972;DHT22;4031;49.758;6.120;2024-02-26T04:13:17;5.30;99.90
7972;DHT22;4031;49.758;6.120;2024-02-26T04:15:44;5.30;99.90
7972;DHT22;4031;49.758;6.120;2024-02-26T04:18:10;5.30;99.90
7972;DHT22;4031;49.758;6.120;2024-02-26T04:20:35;5.30;99.90
7972;DHT22;4031;49.758;6.120;2024-02-26T04:23:03;5.30;99.90
7972;DHT22;4031;49.758;6.120;2024-02-26T04:25:29;5.30;99.90
7972;DHT22;4031;49.758;6.120;2024-02-26T04:27:55;5.30;99.90
7972;DHT22;4031;49.758;6.120;2024-02-26T04:30:20;5.40;99.90
7972;DHT22;4031;49.758;6.120;2024-02-26T04:32:46;5.40;99.90
7972;DHT22;4031;49.758;6.120;2024-02-26T04:35:12;5.40;99.90
7972;DHT22;4031;49.758;6.120;2024-02-26T04:37:37;5.40;99.90
7972;DHT22;4031;49.758;6.120;2024-02-26T04:40:04;5.40;99.90
7972;DHT22;4031;49.758;6.120;2024-02-26T04:42:30;5.40;99.90
7972;DHT22;4031;49.758;6.120;2024-02-26T04:44:56;5.40;99.90
7972;DHT22;4031;49.758;6.120;2024-02-26T04:47:22;5.40;99.90
7972;DHT22;4031;49.758;6.120;2024-02-26T04:49:54;5.40;99.90
7972;DHT22;4031;49.758;6.120;2024-02-26T04:52:21;5.40;99.90
7972;DHT22;4031;49.758;6.120;2024-02-26T04:54:47;5.40;99.90
7972;DHT22;4031;49.758;6.120;2024-02-26T04:57:12;5.40;99.90
7972;DHT22;4031;49.758;6.120;2024-02-26T04:59:38;5.40;99.90
7972;DHT22;4031;49.758;6.120;2024-02-26T05:02:06;5.40;99.90
7972;DHT22;4031;49.758;6.120;2024-02-26T05:04:31;5.40;99.90
7972;DHT22;4031;49.758;6.120;2024-02-26T05:06:57;5.40;99.90
7972;DHT22;4031;49.758;6.120;2024-02-26T05:09:23;5.50;99.90
7972;DHT22;4031;49.758;6.120;2024-02-26T05:11:49;5.50;99.90
7972;DHT22;4031;49.758;6.120;2024-02-26T05:14:14;5.50;99.90
7972;DHT22;4031;49.758;6.120;2024-02-26T05:16:40;5.50;99.90
7972;DHT22;4031;49.758;6.120;2024-02-26T05:19:06;5.50;99.90
7972;DHT22;4031;49.758;6.120;2024-02-26T05:21:32;5.60;99.90
7972;DHT22;4031;49.758;6.120;2024-02-26T05:23:59;5.60;99.90
7972;DHT22;4031;49.758;6.120;2024-02-26T05:26:25;5.60;99.90
7972;DHT22;4031;49.758;6.120;2024-02-26T05:28:51;5.60;99.90
7972;DHT22;4031;49.758;6.120;2024-02-26T05:31:17;5.60;99.90
7972;DHT22;4031;49.758;6.120;2024-02-26T05:33:43;5.60;99.90
7972;DHT22;4031;49.758;6.120;2024-02-26T05:36:09;5.60;99.90
7972;DHT22;4031;49.758;6.120;2024-02-26T05:38:35;5.60;99.90
7972;DHT22;4031;49.758;6.120;2024-02-26T05:41:01;5.60;99.90
7972;DHT22;4031;49.758;6.120;2024-02-26T05:43:27;5.60;99.90
7972;DHT22;4031;49.758;6.120;2024-02-26T05:45:54;5.60;99.90
7972;DHT22;4031;49.758;6.120;2024-02-26T05:48:20;5.60;99.90
7972;DHT22;4031;49.758;6.120;2024-02-26T05:50:46;5.60;99.90
7972;DHT22;4031;49.758;6.120;2024-02-26T05:53:12;5.60;99.90
7972;DHT22;4031;49.758;6.120;2024-02-26T05:55:38;5.60;99.90
7972;DHT22;4031;49.758;6.120;2024-02-26T05:58:04;5.60;99.90
7972;DHT22;4031;49.758;6.120;2024-02-26T06:00:30;5.60;99.90
7972;DHT22;4031;49.758;6.120;2024-02-26T06:02:56;5.60;99.90
7972;DHT22;4031;49.758;6.120;2024-02-26T06:05:22;5.60;99.90
7972;DHT22;4031;49.758;6.120;2024-02-26T06:07:48;5.60;99.90
7972;DHT22;4031;49.758;6.120;2024-02-26T06:10:13;5.60;99.90
7972;DHT22;4031;49.758;6.120;2024-02-26T06:12:39;5.60;99.90
7972;DHT22;4031;49.758;6.120;2024-02-26T06:15:06;5.60;99.90
7972;DHT22;4031;49.758;6.120;2024-02-26T06:17:32;5.60;99.90
7972;DHT22;4031;49.758;6.120;2024-02-26T06:19:59;5.60;99.90
7972;DHT22;4031;49.758;6.120;2024-02-26T06:22:25;5.60;99.90
7972;DHT22;4031;49.758;6.120;2024-02-26T06:24:51;5.60;99.90
7972;DHT22;4031;49.758;6.120;2024-02-26T06:27:17;5.60;99.90
7972;DHT22;4031;49.758;6.120;2024-02-26T06:29:43;5.60;99.90
7972;DHT22;4031;49.758;6.120;2024-02-26T06:32:08;5.60;99.90
7972;DHT22;4031;49.758;6.120;2024-02-26T06:34:34;5.60;99.90
7972;DHT22;4031;49.758;6.120;2024-02-26T06:37:00;5.70;99.90
7972;DHT22;4031;49.758;6.120;2024-02-26T06:39:26;5.70;99.90
7972;DHT22;4031;49.758;6.120;2024-02-26T06:41:52;5.70;99.90
7972;DHT22;4031;49.758;6.120;2024-02-26T06:44:25;5.70;99.90
7972;DHT22;4031;49.758;6.120;2024-02-26T06:46:51;5.70;99.90
7972;DHT22;4031;49.758;6.120;2024-02-26T06:49:17;5.70;99.90
7972;DHT22;4031;49.758;6.120;2024-02-26T06:51:43;5.70;99.90
7972;DHT22;4031;49.758;6.120;2024-02-26T06:54:08;5.70;99.90
7972;DHT22;4031;49.758;6.120;2024-02-26T06:56:35;5.70;99.90
7972;DHT22;4031;49.758;6.120;2024-02-26T06:59:01;5.70;99.90
7972;DHT22;4031;49.758;6.120;2024-02-26T07:01:26;5.80;99.90
7972;DHT22;4031;49.758;6.120;2024-02-26T07:03:52;5.80;99.90
7972;DHT22;4031;49.758;6.120;2024-02-26T07:06:18;5.80;99.90
7972;DHT22;4031;49.758;6.120;2024-02-26T07:08:44;5.80;99.90
7972;DHT22;4031;49.758;6.120;2024-02-26T07:11:10;5.90;99.90
7972;DHT22;4031;49.758;6.120;2024-02-26T07:13:36;5.90;99.90
7972;DHT22;4031;49.758;6.120;2024-02-26T07:16:03;6.00;99.90
7972;DHT22;4031;49.758;6.120;2024-02-26T07:18:29;6.00;99.90
7972;DHT22;4031;49.758;6.120;2024-02-26T07:20:55;5.90;99.90
7972;DHT22;4031;49.758;6.120;2024-02-26T07:23:21;5.90;99.90
7972;DHT22;4031;49.758;6.120;2024-02-26T07:25:47;6.10;99.90
7972;DHT22;4031;49.758;6.120;2024-02-26T07:28:14;6.00;99.90
7972;DHT22;4031;49.758;6.120;2024-02-26T07:30:40;6.10;99.90
7972;DHT22;4031;49.758;6.120;2024-02-26T07:33:06;6.20;99.90
7972;DHT22;4031;49.758;6.120;2024-02-26T07:35:32;6.20;99.90
7972;DHT22;4031;49.758;6.120;2024-02-26T07:37:59;6.30;99.90
7972;DHT22;4031;49.758;6.120;2024-02-26T07:40:24;6.30;99.90
7972;DHT22;4031;49.758;6.120;2024-02-26T07:42:50;6.30;99.90
7972;DHT22;4031;49.758;6.120;2024-02-26T07:45:16;6.40;99.90
7972;DHT22;4031;49.758;6.120;2024-02-26T07:47:45;6.40;99.90
7972;DHT22;4031;49.758;6.120;2024-02-26T07:50:12;6.30;99.90
7972;DHT22;4031;49.758;6.120;2024-02-26T07:52:38;6.30;99.90
7972;DHT22;4031;49.758;6.120;2024-02-26T07:55:05;6.30;99.90
7972;DHT22;4031;49.758;6.120;2024-02-26T07:57:32;6.30;99.90
7972;DHT22;4031;49.758;6.120;2024-02-26T08:00:04;6.30;99.90
7972;DHT22;4031;49.758;6.120;2024-02-26T08:02:34;6.30;99.90
7972;DHT22;4031;49.758;6.120;2024-02-26T08:05:00;6.20;99.90
7972;DHT22;4031;49.758;6.120;2024-02-26T08:07:26;6.30;99.90
7972;DHT22;4031;49.758;6.120;2024-02-26T08:09:52;6.30;99.90
7972;DHT22;4031;49.758;6.120;2024-02-26T08:12:17;6.30;99.90
7972;DHT22;4031;49.758;6.120;2024-02-26T08:14:43;6.30;99.90
7972;DHT22;4031;49.758;6.120;2024-02-26T08:17:10;6.40;99.90
7972;DHT22;4031;49.758;6.120;2024-02-26T08:19:35;6.50;99.90
7972;DHT22;4031;49.758;6.120;2024-02-26T08:22:02;6.50;99.90
7972;DHT22;4031;49.758;6.120;2024-02-26T08:24:28;6.50;99.90
7972;DHT22;4031;49.758;6.120;2024-02-26T08:26:54;6.60;99.90
7972;DHT22;4031;49.758;6.120;2024-02-26T08:29:19;6.60;99.90
7972;DHT22;4031;49.758;6.120;2024-02-26T08:31:45;6.70;99.90
7972;DHT22;4031;49.758;6.120;2024-02-26T08:34:11;6.80;99.90
7972;DHT22;4031;49.758;6.120;2024-02-26T08:36:37;6.80;99.90
7972;DHT22;4031;49.758;6.120;2024-02-26T08:39:03;6.90;99.90
7972;DHT22;4031;49.758;6.120;2024-02-26T08:41:29;6.90;99.90
7972;DHT22;4031;49.758;6.120;2024-02-26T08:43:55;7.00;99.90
7972;DHT22;4031;49.758;6.120;2024-02-26T08:46:21;7.20;99.90
7972;DHT22;4031;49.758;6.120;2024-02-26T08:48:47;7.40;99.90
7972;DHT22;4031;49.758;6.120;2024-02-26T08:51:12;7.50;99.90
7972;DHT22;4031;49.758;6.120;2024-02-26T08:53:38;7.70;99.90
7972;DHT22;4031;49.758;6.120;2024-02-26T08:56:05;7.90;99.90
7972;DHT22;4031;49.758;6.120;2024-02-26T08:58:31;7.90;99.90
7972;DHT22;4031;49.758;6.120;2024-02-26T09:00:56;7.90;99.90
7972;DHT22;4031;49.758;6.120;2024-02-26T09:03:22;7.90;99.90
7972;DHT22;4031;49.758;6.120;2024-02-26T09:05:48;7.80;99.90
7972;DHT22;4031;49.758;6.120;2024-02-26T09:08:14;7.90;99.90
7972;DHT22;4031;49.758;6.120;2024-02-26T09:10:41;7.90;99.90
7972;DHT22;4031;49.758;6.120;2024-02-26T09:13:07;8.00;99.90
7972;DHT22;4031;49.758;6.120;2024-02-26T09:15:33;8.00;99.90
7972;DHT22;4031;49.758;6.120;2024-02-26T09:17:59;8.10;99.90
7972;DHT22;4031;49.758;6.120;2024-02-26T09:20:25;8.10;99.90
7972;DHT22;4031;49.758;6.120;2024-02-26T09:22:52;8.20;99.90
7972;DHT22;4031;49.758;6.120;2024-02-26T09:25:18;8.30;99.90
7972;DHT22;4031;49.758;6.120;2024-02-26T09:27:44;8.40;99.90
7972;DHT22;4031;49.758;6.120;2024-02-26T09:30:11;8.50;99.90
7972;DHT22;4031;49.758;6.120;2024-02-26T09:32:38;8.40;99.90
7972;DHT22;4031;49.758;6.120;2024-02-26T09:35:05;8.30;99.90
7972;DHT22;4031;49.758;6.120;2024-02-26T09:37:31;8.30;99.90
7972;DHT22;4031;49.758;6.120;2024-02-26T09:39:58;8.40;99.90
7972;DHT22;4031;49.758;6.120;2024-02-26T09:42:30;8.50;99.90
7972;DHT22;4031;49.758;6.120;2024-02-26T09:45:00;8.50;99.90
7972;DHT22;4031;49.758;6.120;2024-02-26T09:47:31;8.50;99.90
7972;DHT22;4031;49.758;6.120;2024-02-26T09:49:59;8.50;99.90
7972;DHT22;4031;49.758;6.120;2024-02-26T09:52:28;8.70;99.90
7972;DHT22;4031;49.758;6.120;2024-02-26T09:54:54;9.00;99.90
7972;DHT22;4031;49.758;6.120;2024-02-26T09:57:20;9.40;99.90
7972;DHT22;4031;49.758;6.120;2024-02-26T09:59:51;9.80;99.90
7972;DHT22;4031;49.758;6.120;2024-02-26T10:02:19;9.80;99.90
7972;DHT22;4031;49.758;6.120;2024-02-26T10:04:47;9.80;99.90
7972;DHT22;4031;49.758;6.120;2024-02-26T10:07:13;9.80;99.90
7972;DHT22;4031;49.758;6.120;2024-02-26T10:09:40;9.80;99.90
7972;DHT22;4031;49.758;6.120;2024-02-26T10:12:09;9.90;99.90
7972;DHT22;4031;49.758;6.120;2024-02-26T10:14:36;9.80;99.90
7972;DHT22;4031;49.758;6.120;2024-02-26T10:17:02;9.80;99.90
7972;DHT22;4031;49.758;6.120;2024-02-26T10:19:32;9.80;99.90
7972;DHT22;4031;49.758;6.120;2024-02-26T10:21:58;9.80;99.90
7972;DHT22;4031;49.758;6.120;2024-02-26T10:24:27;9.90;99.90
7972;DHT22;4031;49.758;6.120;2024-02-26T10:26:57;10.00;99.90
7972;DHT22;4031;49.758;6.120;2024-02-26T10:29:24;10.20;99.90
7972;DHT22;4031;49.758;6.120;2024-02-26T10:31:51;10.40;99.90
7972;DHT22;4031;49.758;6.120;2024-02-26T10:34:18;10.70;99.90
7972;DHT22;4031;49.758;6.120;2024-02-26T10:36:44;11.10;99.90
7972;DHT22;4031;49.758;6.120;2024-02-26T10:39:12;11.50;99.90
7972;DHT22;4031;49.758;6.120;2024-02-26T10:41:40;11.60;99.90
7972;DHT22;4031;49.758;6.120;2024-02-26T10:44:11;11.70;99.90
7972;DHT22;4031;49.758;6.120;2024-02-26T10:46:41;11.80;99.90
7972;DHT22;4031;49.758;6.120;2024-02-26T10:49:14;12.60;99.90
7972;DHT22;4031;49.758;6.120;2024-02-26T10:51:53;13.60;99.90
7972;DHT22;4031;49.758;6.120;2024-02-26T10:54:23;13.90;99.90
7972;DHT22;4031;49.758;6.120;2024-02-26T10:56:51;13.50;99.90
7972;DHT22;4031;49.758;6.120;2024-02-26T10:59:18;13.30;99.90
7972;DHT22;4031;49.758;6.120;2024-02-26T11:01:48;13.00;99.90
7972;DHT22;4031;49.758;6.120;2024-02-26T11:04:16;12.60;99.90
7972;DHT22;4031;49.758;6.120;2024-02-26T11:06:44;12.30;99.90
7972;DHT22;4031;49.758;6.120;2024-02-26T11:09:12;12.10;99.90
7972;DHT22;4031;49.758;6.120;2024-02-26T11:11:40;12.00;99.90
7972;DHT22;4031;49.758;6.120;2024-02-26T11:14:08;11.70;99.90
7972;DHT22;4031;49.758;6.120;2024-02-26T11:16:35;11.40;99.90
7972;DHT22;4031;49.758;6.120;2024-02-26T11:19:07;11.20;99.90
7972;DHT22;4031;49.758;6.120;2024-02-26T11:21:35;11.20;99.90
7972;DHT22;4031;49.758;6.120;2024-02-26T11:24:15;11.40;99.90
7972;DHT22;4031;49.758;6.120;2024-02-26T11:27:04;11.60;99.90
7972;DHT22;4031;49.758;6.120;2024-02-26T11:29:35;11.90;99.90
7972;DHT22;4031;49.758;6.120;2024-02-26T11:32:05;12.00;99.90
7972;DHT22;4031;49.758;6.120;2024-02-26T11:34:31;12.10;99.90
7972;DHT22;4031;49.758;6.120;2024-02-26T11:36:57;12.30;99.90
7972;DHT22;4031;49.758;6.120;2024-02-26T11:39:24;12.70;99.90
7972;DHT22;4031;49.758;6.120;2024-02-26T11:41:50;13.40;99.90
7972;DHT22;4031;49.758;6.120;2024-02-26T11:44:28;13.70;99.90
7972;DHT22;4031;49.758;6.120;2024-02-26T11:46:56;13.70;99.90
7972;DHT22;4031;49.758;6.120;2024-02-26T11:51:58;13.20;99.90
7972;DHT22;4031;49.758;6.120;2024-02-26T11:54:48;12.70;99.90
7972;DHT22;4031;49.758;6.120;2024-02-26T11:57:26;12.20;99.90
7972;DHT22;4031;49.758;6.120;2024-02-26T12:02:44;11.40;99.90
7972;DHT22;4031;49.758;6.120;2024-02-26T12:05:16;11.20;99.90
7972;DHT22;4031;49.758;6.120;2024-02-26T12:07:47;10.90;99.90
7972;DHT22;4031;49.758;6.120;2024-02-26T12:10:30;10.80;99.90
7972;DHT22;4031;49.758;6.120;2024-02-26T12:13:04;10.80;99.90
7972;DHT22;4031;49.758;6.120;2024-02-26T12:15:37;10.80;99.90
7972;DHT22;4031;49.758;6.120;2024-02-26T12:18:06;10.70;99.90
7972;DHT22;4031;49.758;6.120;2024-02-26T12:20:39;10.60;99.90
7972;DHT22;4031;49.758;6.120;2024-02-26T12:23:05;10.60;99.90
7972;DHT22;4031;49.758;6.120;2024-02-26T12:25:31;10.70;99.90
7972;DHT22;4031;49.758;6.120;2024-02-26T12:27:59;10.70;99.90
7972;DHT22;4031;49.758;6.120;2024-02-26T12:30:25;10.80;99.90
7972;DHT22;4031;49.758;6.120;2024-02-26T12:32:52;10.90;99.90
7972;DHT22;4031;49.758;6.120;2024-02-26T12:35:22;11.00;99.90
7972;DHT22;4031;49.758;6.120;2024-02-26T12:37:50;11.30;99.90
7972;DHT22;4031;49.758;6.120;2024-02-26T12:40:17;11.50;99.90
7972;DHT22;4031;49.758;6.120;2024-02-26T12:42:43;11.60;99.90
7972;DHT22;4031;49.758;6.120;2024-02-26T12:45:10;11.50;99.90
7972;DHT22;4031;49.758;6.120;2024-02-26T12:47:37;11.50;99.90
7972;DHT22;4031;49.758;6.120;2024-02-26T12:50:07;11.60;99.90
7972;DHT22;4031;49.758;6.120;2024-02-26T12:52:36;11.80;99.90
7972;DHT22;4031;49.758;6.120;2024-02-26T12:55:05;11.90;99.90
7972;DHT22;4031;49.758;6.120;2024-02-26T12:57:37;12.00;99.90
7972;DHT22;4031;49.758;6.120;2024-02-26T13:00:05;12.10;99.90
7972;DHT22;4031;49.758;6.120;2024-02-26T13:02:32;12.00;99.90
7972;DHT22;4031;49.758;6.120;2024-02-26T13:04:59;11.80;99.90
7972;DHT22;4031;49.758;6.120;2024-02-26T13:07:27;11.70;99.90
7972;DHT22;4031;49.758;6.120;2024-02-26T13:09:53;11.70;99.90
7972;DHT22;4031;49.758;6.120;2024-02-26T13:12:19;11.70;99.90
7972;DHT22;4031;49.758;6.120;2024-02-26T13:14:44;11.70;99.90
7972;DHT22;4031;49.758;6.120;2024-02-26T13:17:10;11.70;99.90
7972;DHT22;4031;49.758;6.120;2024-02-26T13:19:36;11.60;99.90
7972;DHT22;4031;49.758;6.120;2024-02-26T13:22:05;11.40;99.90
7972;DHT22;4031;49.758;6.120;2024-02-26T13:24:35;11.20;99.90
7972;DHT22;4031;49.758;6.120;2024-02-26T13:27:02;11.10;99.90
7972;DHT22;4031;49.758;6.120;2024-02-26T13:29:31;11.00;99.90
7972;DHT22;4031;49.758;6.120;2024-02-26T13:31:58;11.10;99.90
7972;DHT22;4031;49.758;6.120;2024-02-26T13:34:28;11.00;99.90
7972;DHT22;4031;49.758;6.120;2024-02-26T13:36:56;10.90;99.90
7972;DHT22;4031;49.758;6.120;2024-02-26T13:39:27;11.00;99.90
7972;DHT22;4031;49.758;6.120;2024-02-26T13:41:53;11.00;99.90
7972;DHT22;4031;49.758;6.120;2024-02-26T13:44:20;11.00;99.90
7972;DHT22;4031;49.758;6.120;2024-02-26T13:46:47;11.10;99.90
7972;DHT22;4031;49.758;6.120;2024-02-26T13:49:13;11.10;99.90
7972;DHT22;4031;49.758;6.120;2024-02-26T13:51:39;11.00;99.90
7972;DHT22;4031;49.758;6.120;2024-02-26T13:54:06;10.90;99.90
7972;DHT22;4031;49.758;6.120;2024-02-26T13:56:32;10.80;99.90
7972;DHT22;4031;49.758;6.120;2024-02-26T13:58:58;10.80;99.90
7972;DHT22;4031;49.758;6.120;2024-02-26T14:01:25;10.70;99.90
7972;DHT22;4031;49.758;6.120;2024-02-26T14:03:51;10.80;99.90
7972;DHT22;4031;49.758;6.120;2024-02-26T14:06:20;10.90;99.90
7972;DHT22;4031;49.758;6.120;2024-02-26T14:08:46;10.90;99.90
7972;DHT22;4031;49.758;6.120;2024-02-26T14:11:12;11.00;99.90
7972;DHT22;4031;49.758;6.120;2024-02-26T14:13:37;11.00;99.90
7972;DHT22;4031;49.758;6.120;2024-02-26T14:16:04;11.00;99.90
7972;DHT22;4031;49.758;6.120;2024-02-26T14:18:29;11.00;99.90
7972;DHT22;4031;49.758;6.120;2024-02-26T14:20:55;11.10;99.90
7972;DHT22;4031;49.758;6.120;2024-02-26T14:23:21;11.20;99.90
7972;DHT22;4031;49.758;6.120;2024-02-26T14:25:46;11.30;99.90
7972;DHT22;4031;49.758;6.120;2024-02-26T14:28:12;11.20;99.90
7972;DHT22;4031;49.758;6.120;2024-02-26T14:30:38;11.30;99.90
7972;DHT22;4031;49.758;6.120;2024-02-26T14:33:04;11.30;99.90
7972;DHT22;4031;49.758;6.120;2024-02-26T14:35:29;11.10;99.90
7972;DHT22;4031;49.758;6.120;2024-02-26T14:37:55;11.10;99.90
7972;DHT22;4031;49.758;6.120;2024-02-26T14:40:26;11.00;99.90
7972;DHT22;4031;49.758;6.120;2024-02-26T14:42:51;10.90;99.90
7972;DHT22;4031;49.758;6.120;2024-02-26T14:45:17;10.80;99.90
7972;DHT22;4031;49.758;6.120;2024-02-26T14:47:43;10.80;99.90
7972;DHT22;4031;49.758;6.120;2024-02-26T14:50:09;10.70;99.90
7972;DHT22;4031;49.758;6.120;2024-02-26T14:52:34;10.60;99.90
7972;DHT22;4031;49.758;6.120;2024-02-26T14:55:00;10.60;99.90
7972;DHT22;4031;49.758;6.120;2024-02-26T14:57:26;10.50;99.90
7972;DHT22;4031;49.758;6.120;2024-02-26T14:59:52;10.50;99.90
7972;DHT22;4031;49.758;6.120;2024-02-26T15:02:18;10.50;99.90
7972;DHT22;4031;49.758;6.120;2024-02-26T15:04:44;10.60;99.90
7972;DHT22;4031;49.758;6.120;2024-02-26T15:07:10;10.50;99.90
7972;DHT22;4031;49.758;6.120;2024-02-26T15:09:37;10.50;99.90
7972;DHT22;4031;49.758;6.120;2024-02-26T15:12:04;10.60;99.90
7972;DHT22;4031;49.758;6.120;2024-02-26T15:14:32;10.50;99.90
7972;DHT22;4031;49.758;6.120;2024-02-26T15:16:58;10.50;99.90
7972;DHT22;4031;49.758;6.120;2024-02-26T15:19:24;10.50;99.90
7972;DHT22;4031;49.758;6.120;2024-02-26T15:21:49;10.60;99.90
7972;DHT22;4031;49.758;6.120;2024-02-26T15:24:16;10.60;99.90
7972;DHT22;4031;49.758;6.120;2024-02-26T15:26:44;10.60;99.90
7972;DHT22;4031;49.758;6.120;2024-02-26T15:29:11;10.50;99.90
7972;DHT22;4031;49.758;6.120;2024-02-26T15:31:37;10.50;99.90
7972;DHT22;4031;49.758;6.120;2024-02-26T15:34:03;10.40;99.90
7972;DHT22;4031;49.758;6.120;2024-02-26T15:36:29;10.40;99.90
7972;DHT22;4031;49.758;6.120;2024-02-26T15:38:56;10.30;99.90
7972;DHT22;4031;49.758;6.120;2024-02-26T15:41:22;10.20;99.90
7972;DHT22;4031;49.758;6.120;2024-02-26T15:43:48;10.00;99.90
7972;DHT22;4031;49.758;6.120;2024-02-26T15:46:14;9.90;99.90
7972;DHT22;4031;49.758;6.120;2024-02-26T15:48:40;9.90;99.90
7972;DHT22;4031;49.758;6.120;2024-02-26T15:51:05;9.90;99.90
7972;DHT22;4031;49.758;6.120;2024-02-26T15:53:31;9.90;99.90
7972;DHT22;4031;49.758;6.120;2024-02-26T15:55:57;9.80;99.90
7972;DHT22;4031;49.758;6.120;2024-02-26T15:58:22;9.70;99.90
7972;DHT22;4031;49.758;6.120;2024-02-26T16:00:49;9.60;99.90
7972;DHT22;4031;49.758;6.120;2024-02-26T16:03:15;9.40;99.90
7972;DHT22;4031;49.758;6.120;2024-02-26T16:05:41;9.30;99.90
7972;DHT22;4031;49.758;6.120;2024-02-26T16:08:19;9.30;99.90
7972;DHT22;4031;49.758;6.120;2024-02-26T16:10:47;9.20;99.90
7972;DHT22;4031;49.758;6.120;2024-02-26T16:13:13;9.10;99.90
7972;DHT22;4031;49.758;6.120;2024-02-26T16:15:50;9.10;99.90